Track Боревич Александр

Time Latitude Longitude Accuracy (66% radius in meters) Altitude (meters) Speed (km/hour) Bearing (degrees) Battery (%) GPS flag
10:01:33 60.370949 29.556312 6 70 0 46.815517425537 75 1 delete
10:01:20 60.370953 29.556296 6 81 0 46.815517425537 75 1 delete
10:01:15 60.370932 29.556347 6 75 0.29912090301514 18.770921707153 75 1 delete
10:01:08 60.370909 29.556410 6 80 0 198.59410095215 75 1 delete
10:01:04 60.370890 29.556383 6 81 0 198.59410095215 75 1 delete
10:00:55 60.370865 29.556274 6 73 0 198.59410095215 75 1 delete
10:00:51 60.370877 29.556288 8 74 0 198.59410095215 75 1 delete
10:00:45 60.370916 29.556343 12 78 0 198.59410095215 75 1 delete
10:00:40 60.370956 29.556375 6 79 0 198.59410095215 75 1 delete
10:00:27 60.370945 29.556331 12 75 0 198.59410095215 75 1 delete
10:00:15 60.370947 29.556352 8 64 0 198.59410095215 75 1 delete
10:00:13 60.370961 29.556354 6 69 0 198.59410095215 75 1 delete
10:00:03 60.371007 29.556364 6 79 0 198.59410095215 75 1 delete
09:59:51 60.371008 29.556390 6 78 0 198.59410095215 75 1 delete
09:59:49 60.371002 29.556399 6 80 0 198.59410095215 75 1 delete
09:59:38 60.370994 29.556404 6 80 0 198.59410095215 75 1 delete
09:59:25 60.370961 29.556360 6 73 0 198.59410095215 75 1 delete
09:59:11 60.370927 29.556351 6 66 0 198.59410095215 75 1 delete
09:59:02 60.370918 29.556318 6 68 0 198.59410095215 75 1 delete
09:58:59 60.370924 29.556320 6 69 0 198.59410095215 75 1 delete
09:58:46 60.370950 29.556340 4 73 0 189.44296264648 75 1 delete
09:58:32 60.370976 29.556342 6 76 0 103.83061218262 78 1 delete
09:58:20 60.370978 29.556342 6 74 0 103.83061218262 78 1 delete
09:58:07 60.370986 29.556350 6 75 0 103.83061218262 78 1 delete
09:57:54 60.370985 29.556361 6 77 0 103.83061218262 78 1 delete
09:57:41 60.370982 29.556366 6 77 0 103.83061218262 78 1 delete
09:57:29 60.370980 29.556363 6 77 0 103.83061218262 78 1 delete
09:57:16 60.370971 29.556350 6 75 0 103.83061218262 78 1 delete
09:57:04 60.370971 29.556360 4 75 0 103.83061218262 78 1 delete
09:56:52 60.370961 29.556346 6 74 0 103.83061218262 78 1 delete
09:56:51 60.370957 29.556342 4 75 0 103.83061218262 78 1 delete
09:56:38 60.370914 29.556325 6 64 0 103.83061218262 78 1 delete
09:56:25 60.370914 29.556325 6 65 0 103.83061218262 78 1 delete
09:56:12 60.370914 29.556325 6 64 0 103.83061218262 78 1 delete
09:56:00 60.370900 29.556331 6 54 0 103.83061218262 78 1 delete
09:55:58 60.370913 29.556343 6 53 0 103.83061218262 78 1 delete
09:55:47 60.370982 29.556337 6 78 0 196.24089050293 78 1 delete
09:55:35 60.370965 29.556353 6 74 0 196.24089050293 78 1 delete
09:55:29 60.370966 29.556358 4 73 0 196.24089050293 78 1 delete
09:55:22 60.370976 29.556390 6 75 0 192.6173248291 78 1 delete
09:55:10 60.370994 29.556441 6 80 0 192.6173248291 78 1 delete
09:55:03 60.370984 29.556441 6 80 0 192.6173248291 78 1 delete
09:54:57 60.370970 29.556378 6 77 0 192.6173248291 78 1 delete
09:54:44 60.370966 29.556328 6 74 0 192.6173248291 78 1 delete
09:54:31 60.370956 29.556317 8 73 0 192.6173248291 78 1 delete
09:54:18 60.370967 29.556347 6 74 0 192.6173248291 78 1 delete
09:54:17 60.370970 29.556350 6 74 0 192.6173248291 78 1 delete
09:54:04 60.370981 29.556361 12 73 0 192.6173248291 78 1 delete
09:53:52 60.370962 29.556387 6 73 0 192.6173248291 78 1 delete
09:53:40 60.370968 29.556423 6 76 0 192.6173248291 78 1 delete